Time;durP1;ratioP1;P1;durP2;ratioP2;P2;SDS_P1;SDS_P2;PMS_P1;PMS_P2;Temp;Humidity;BMP_temperature;BMP_pressure;BME280_temperature;BME280_humidity;BME280_pressure;Samples;Min_cycle;Max_cycle;Signal;HPM_P1;HPM_P2
2022/05/31 00:01:55;;;;;;;5.20;2.15;;;;;;;26.42;43.54;98888.09;5076238;28;20494;-84
2022/05/31 00:04:21;;;;;;;3.92;1.77;;;;;;;26.42;44.07;98892.63;5059159;28;20410;-83
2022/05/31 00:06:47;;;;;;;4.60;1.55;;;;;;;26.40;43.77;98906.94;5058582;28;20051;-84
2022/05/31 00:09:13;;;;;;;3.80;1.60;;;;;;;26.40;44.17;98908.78;5076488;28;20028;-85
2022/05/31 00:11:41;;;;;;;4.07;1.80;;;;;;;26.42;44.01;98908.66;5058495;28;20016;-85
2022/05/31 00:14:07;;;;;;;3.15;1.60;;;;;;;26.40;44.28;98898.09;5058698;28;20048;-85
2022/05/31 00:16:33;;;;;;;3.65;1.80;;;;;;;26.40;43.85;98900.78;5063204;28;20120;-85
2022/05/31 00:18:58;;;;;;;3.08;1.60;;;;;;;26.39;43.81;98893.75;5059096;28;20115;-84
2022/05/31 00:21:40;;;;;;;3.95;1.45;;;;;;;26.39;44.10;98893.75;5059129;28;20517;-83
2022/05/31 00:24:08;;;;;;;4.65;1.63;;;;;;;26.38;44.42;98900.06;5058903;28;20350;-83
2022/05/31 00:26:36;;;;;;;4.05;1.80;;;;;;;26.38;44.27;98916.09;5076506;28;20028;-85
2022/05/31 00:29:02;;;;;;;3.10;1.60;;;;;;;26.37;44.15;98909.06;5058797;28;20028;-83
2022/05/31 00:31:28;;;;;;;4.32;1.70;;;;;;;26.36;44.22;98910.06;5058582;28;20024;-84
2022/05/31 00:33:54;;;;;;;3.47;1.70;;;;;;;26.36;44.37;98920.75;5076055;28;20024;-83
2022/05/31 00:36:20;;;;;;;4.80;1.90;;;;;;;26.35;44.65;98914.56;5058283;28;20050;-87
2022/05/31 00:38:46;;;;;;;3.78;2.03;;;;;;;26.34;44.30;98928.09;5058888;28;20034;-84
2022/05/31 00:41:23;;;;;;;4.07;1.88;;;;;;;26.33;44.57;98926.41;5057885;28;20078;-83
2022/05/31 00:43:49;;;;;;;3.97;1.90;;;;;;;26.32;44.92;98924.69;5057867;28;20037;-84
2022/05/31 00:46:15;;;;;;;4.70;2.00;;;;;;;26.31;44.25;98917.66;5075348;28;20029;-83
2022/05/31 00:48:55;;;;;;;3.85;1.50;;;;;;;26.31;44.63;98885.56;5057753;28;20039;-83
2022/05/31 00:51:23;;;;;;;3.83;1.60;;;;;;;26.31;44.68;98890.91;5057445;28;20082;-85
2022/05/31 00:54:01;;;;;;;3.58;1.75;;;;;;;26.29;44.69;98885.69;5057733;28;20422;-83
2022/05/31 00:56:29;;;;;;;3.40;1.63;;;;;;;26.29;44.84;98882.19;5077354;28;20028;-84
2022/05/31 00:59:11;;;;;;;3.58;1.63;;;;;;;26.27;44.70;98860.94;5057732;28;20066;-85
2022/05/31 01:01:41;;;;;;;5.13;1.67;;;;;;;26.28;45.21;98854.59;5057364;28;20059;-83
2022/05/31 01:04:07;;;;;;;3.70;1.88;;;;;;;26.25;45.38;98857.59;5057729;28;20035;-83
2022/05/31 01:06:33;;;;;;;3.95;1.50;;;;;;;26.26;45.23;98851.25;5057556;28;20037;-83
2022/05/31 01:09:00;;;;;;;2.75;1.50;;;;;;;26.25;45.03;98841.53;5057431;28;20020;-86
2022/05/31 01:11:28;;;;;;;3.83;1.77;;;;;;;26.24;45.31;98843.34;5057583;28;20028;-85
2022/05/31 01:13:55;;;;;;;3.80;1.58;;;;;;;26.22;45.44;98856.00;5057569;28;20035;-85
2022/05/31 01:16:22;;;;;;;3.10;1.38;;;;;;;26.21;45.14;98867.69;5057520;28;20047;-84
2022/05/31 01:18:48;;;;;;;3.47;1.60;;;;;;;26.20;44.92;98868.66;5057490;28;20054;-85
2022/05/31 01:21:13;;;;;;;2.25;1.20;;;;;;;26.20;44.83;98863.31;5057685;28;20038;-83
2022/05/31 01:23:56;;;;;;;4.00;1.80;;;;;;;26.18;45.17;98870.63;5057686;28;20033;-84
2022/05/31 01:26:36;;;;;;;5.13;1.50;;;;;;;26.16;45.09;98869.94;5057260;28;20169;-85
2022/05/31 01:29:10;;;;;;;3.13;1.67;;;;;;;26.16;45.37;98883.31;5057393;28;20496;-85
2022/05/31 01:31:57;;;;;;;3.28;1.50;;;;;;;26.15;45.22;98881.63;5057249;28;20024;-85
2022/05/31 01:35:00;;;;;;;3.90;1.35;;;;;;;26.13;45.20;98891.59;5058077;28;20128;-84
2022/05/31 01:37:38;;;;;;;4.53;1.73;;;;;;;26.14;45.39;98901.31;5057520;28;20035;-84
2022/05/31 01:40:10;;;;;;;3.72;1.50;;;;;;;26.12;45.12;98922.00;5057182;28;20090;-84
2022/05/31 01:42:43;;;;;;;2.72;1.50;;;;;;;26.12;45.39;98924.69;5056978;28;20534;-84
2022/05/31 01:45:26;;;;;;;4.70;1.30;;;;;;;26.11;45.35;98928.34;5056725;28;20032;-85
2022/05/31 01:47:56;;;;;;;2.00;1.40;;;;;;;26.11;45.25;98928.34;5057396;28;20492;-84
2022/05/31 01:50:22;;;;;;;3.55;1.60;;;;;;;26.10;45.29;98932.00;5057889;28;20036;-83
2022/05/31 01:52:50;;;;;;;3.53;1.40;;;;;;;26.08;45.41;98929.47;5057793;28;20034;-85
2022/05/31 01:55:17;;;;;;;3.35;1.58;;;;;;;26.08;45.50;98931.28;5075980;28;20082;-84
2022/05/31 01:57:48;;;;;;;2.65;1.38;;;;;;;26.08;45.37;98925.94;5059069;28;20062;-87
2022/05/31 02:00:16;;;;;;;4.38;1.50;;;;;;;26.07;45.49;98921.56;5077303;28;20036;-84
2022/05/31 02:02:47;;;;;;;2.85;1.40;;;;;;;26.07;45.42;98921.56;5046576;28;20056;-86
2022/05/31 02:05:13;;;;;;;4.22;1.63;;;;;;;26.07;45.57;98916.22;5041992;28;20059;-86
2022/05/31 02:07:39;;;;;;;3.83;1.80;;;;;;;26.05;45.62;98923.56;5044520;28;20064;-87
2022/05/31 02:10:05;;;;;;;2.60;1.45;;;;;;;26.05;45.93;98912.88;5042117;28;20025;-86
2022/05/31 02:12:31;;;;;;;5.68;1.63;;;;;;;26.04;45.77;98912.00;5039813;28;20025;-86
2022/05/31 02:14:57;;;;;;;2.92;1.63;;;;;;;26.01;45.91;98907.78;5038622;28;20493;-86
2022/05/31 02:17:24;;;;;;;3.42;1.40;;;;;;;26.01;46.20;98910.44;5036792;28;20033;-85
2022/05/31 02:19:49;;;;;;;3.85;1.73;;;;;;;26.00;46.27;98906.09;5036767;28;20558;-83
2022/05/31 02:22:17;;;;;;;3.72;1.45;;;;;;;25.99;45.91;98904.41;5036776;28;20099;-85
2022/05/31 02:24:43;;;;;;;3.42;1.58;;;;;;;25.99;46.71;98906.22;5054297;28;20112;-85
2022/05/31 02:27:09;;;;;;;3.75;1.45;;;;;;;25.98;46.22;98913.41;5036931;28;20420;-85
2022/05/31 02:29:38;;;;;;;3.13;1.38;;;;;;;25.98;46.29;98909.88;5037103;28;20036;-83
2022/05/31 02:32:06;;;;;;;4.40;1.63;;;;;;;25.98;46.44;98909.88;5036873;28;20340;-83
2022/05/31 02:34:36;;;;;;;2.92;1.40;;;;;;;25.96;46.32;98920.72;5036954;28;20029;-87
2022/05/31 02:37:03;;;;;;;3.10;1.40;;;;;;;25.96;46.69;98926.06;5036628;28;20013;-83
2022/05/31 02:39:29;;;;;;;3.33;1.50;;;;;;;25.94;46.39;98930.72;5036862;28;20021;-86
2022/05/31 02:41:55;;;;;;;3.35;1.63;;;;;;;25.94;46.29;98928.03;5054638;28;20032;-84
2022/05/31 02:44:20;;;;;;;3.38;1.40;;;;;;;25.93;46.20;98929.03;5036924;28;20032;-84
2022/05/31 02:46:47;;;;;;;5.40;1.65;;;;;;;25.93;45.82;98925.50;5054442;28;20035;-86
2022/05/31 02:49:12;;;;;;;3.00;1.58;;;;;;;25.92;45.91;98930.03;5054360;28;20025;-86
2022/05/31 02:51:41;;;;;;;3.60;1.40;;;;;;;25.91;46.01;98933.66;5036834;28;20054;-86
2022/05/31 02:54:08;;;;;;;3.35;1.20;;;;;;;25.90;45.63;98942.66;5054297;28;20025;-85
2022/05/31 02:56:33;;;;;;;3.15;1.38;;;;;;;25.90;45.80;98939.97;5040170;28;20022;-84
2022/05/31 02:58:59;;;;;;;2.53;1.20;;;;;;;25.88;45.92;98947.31;5040352;28;20124;-84
2022/05/31 03:01:31;;;;;;;3.75;1.40;;;;;;;25.88;46.03;98947.31;5042903;28;20044;-84
2022/05/31 03:03:57;;;;;;;2.55;1.23;;;;;;;25.86;46.01;98952.78;5059846;28;20538;-84
2022/05/31 03:06:23;;;;;;;3.45;1.55;;;;;;;25.86;45.98;98951.97;5059851;28;20028;-83
2022/05/31 03:08:49;;;;;;;5.47;1.58;;;;;;;25.85;45.87;98951.09;5059882;28;20461;-86
2022/05/31 03:11:34;;;;;;;3.13;1.30;;;;;;;25.83;45.90;98946.88;5059855;28;20365;-84
2022/05/31 03:14:22;;;;;;;4.45;1.60;;;;;;;25.84;45.29;98943.22;5059616;28;20032;-84
2022/05/31 03:16:56;;;;;;;3.28;1.17;;;;;;;25.83;45.48;98938.84;5059560;28;20025;-84
2022/05/31 03:19:27;;;;;;;2.83;1.35;;;;;;;25.81;45.74;98943.50;5059468;28;20119;-85
2022/05/31 03:21:59;;;;;;;3.38;1.35;;;;;;;25.81;45.57;98939.00;5059709;28;20225;-86
2022/05/31 03:24:32;;;;;;;2.92;1.40;;;;;;;25.79;45.44;98940.97;5077488;28;20056;-85
2022/05/31 03:27:02;;;;;;;3.85;1.48;;;;;;;25.79;45.52;98934.75;5059440;28;20032;-85
2022/05/31 03:29:28;;;;;;;3.45;1.42;;;;;;;25.77;45.63;98937.59;5059603;28;20032;-85
2022/05/31 03:31:55;;;;;;;2.80;1.15;;;;;;;25.76;45.50;98940.41;5061493;28;20021;-84
2022/05/31 03:34:20;;;;;;;2.97;1.30;;;;;;;25.76;45.43;98943.06;5059713;28;20051;-85
2022/05/31 03:36:46;;;;;;;3.78;1.40;;;;;;;25.74;45.42;98944.06;5077164;28;20335;-83
2022/05/31 03:39:12;;;;;;;3.03;1.38;;;;;;;25.72;45.17;98948.69;5059547;28;20484;-83
2022/05/31 03:41:37;;;;;;;3.33;1.52;;;;;;;25.73;45.37;98961.03;5059636;28;20036;-86
2022/05/31 03:44:04;;;;;;;2.63;1.30;;;;;;;25.70;45.22;98964.00;5059925;28;20028;-84
2022/05/31 03:46:29;;;;;;;2.63;1.50;;;;;;;25.71;45.32;98976.38;5077094;28;20100;-84
2022/05/31 03:48:55;;;;;;;3.85;1.27;;;;;;;25.68;45.13;98979.34;5059501;28;20060;-87
2022/05/31 03:51:20;;;;;;;3.92;1.48;;;;;;;25.68;45.08;98982.00;5058967;28;20017;-84
2022/05/31 03:53:46;;;;;;;3.10;1.35;;;;;;;25.68;45.28;98987.34;5076748;28;20088;-84
2022/05/31 03:56:12;;;;;;;2.28;1.25;;;;;;;25.65;44.92;99003.66;5058994;28;20046;-83
2022/05/31 03:58:39;;;;;;;2.42;1.25;;;;;;;25.64;45.18;98991.28;5058954;28;20032;-84
2022/05/31 04:01:05;;;;;;;2.80;1.42;;;;;;;25.63;45.12;98983.38;5058798;28;20035;-84
2022/05/31 04:03:31;;;;;;;2.78;1.30;;;;;;;25.63;45.19;98973.56;5059254;28;20028;-85
2022/05/31 04:05:56;;;;;;;4.22;1.63;;;;;;;25.62;45.09;98961.19;5077715;28;20082;-85
2022/05/31 04:08:24;;;;;;;2.22;1.40;;;;;;;25.59;45.19;98956.97;5077916;28;20024;-86
2022/05/31 04:10:49;;;;;;;3.22;1.50;;;;;;;25.59;44.80;98959.63;5063277;28;20468;-85
2022/05/31 04:13:17;;;;;;;2.15;1.40;;;;;;;25.58;44.96;98954.41;5062559;28;20052;-85
2022/05/31 04:15:43;;;;;;;3.10;1.40;;;;;;;25.57;44.91;98963.41;5080655;28;20028;-85
2022/05/31 04:18:09;;;;;;;4.55;1.70;;;;;;;25.55;44.97;98970.69;5064746;28;20032;-86
2022/05/31 04:20:41;;;;;;;3.15;1.50;;;;;;;25.55;45.07;98973.38;5083819;28;20060;-86
2022/05/31 04:26:01;;;;;;;3.08;1.33;;;;;;;25.52;44.87;98977.13;5085114;28;20488;-86
2022/05/31 04:28:26;;;;;;;4.43;1.65;;;;;;;25.51;45.05;98969.28;5086345;28;20420;-87
2022/05/31 04:30:52;;;;;;;4.35;1.80;;;;;;;25.49;44.75;98972.06;5065882;28;20047;-86
2022/05/31 04:33:17;;;;;;;3.15;1.52;;;;;;;25.48;44.59;98976.56;5059452;28;20135;-84
2022/05/31 04:35:43;;;;;;;6.15;2.42;;;;;;;25.47;44.55;98979.38;5076554;28;20012;-83
2022/05/31 04:38:08;;;;;;;2.92;1.50;;;;;;;25.47;44.61;98985.56;5058700;28;20460;-86
2022/05/31 04:40:37;;;;;;;2.20;1.38;;;;;;;25.46;44.62;98986.53;5076133;28;20028;-84
2022/05/31 04:43:03;;;;;;;4.13;1.67;;;;;;;25.45;44.71;98987.53;5058462;28;20517;-84
2022/05/31 04:45:29;;;;;;;3.85;1.65;;;;;;;25.43;44.36;98986.78;5058027;28;20033;-85
2022/05/31 04:47:54;;;;;;;3.22;1.60;;;;;;;25.43;44.27;98996.66;5058330;28;20059;-85
2022/05/31 04:50:20;;;;;;;3.90;1.70;;;;;;;25.43;44.28;98994.81;5060077;28;20421;-83
2022/05/31 04:52:45;;;;;;;2.38;1.25;;;;;;;25.41;44.30;99002.13;5075993;28;20044;-84
2022/05/31 04:55:11;;;;;;;2.72;1.55;;;;;;;25.41;44.37;99006.59;5058844;28;20442;-84
2022/05/31 04:57:36;;;;;;;3.35;1.40;;;;;;;25.39;44.49;99000.56;5058791;28;20029;-85
2022/05/31 05:00:03;;;;;;;2.30;1.50;;;;;;;25.37;44.27;99000.69;5058977;28;20033;-85
2022/05/31 05:02:29;;;;;;;2.85;1.50;;;;;;;25.37;44.31;99005.19;5058714;28;20063;-84
2022/05/31 05:04:54;;;;;;;4.25;1.67;;;;;;;25.34;44.14;99012.47;5058219;28;20361;-83
2022/05/31 05:07:20;;;;;;;3.53;1.63;;;;;;;25.33;44.12;99009.97;5075727;28;20024;-85
2022/05/31 05:09:45;;;;;;;3.15;1.50;;;;;;;25.32;44.21;99010.91;5057913;28;20025;-85
2022/05/31 05:12:11;;;;;;;2.88;1.75;;;;;;;25.31;44.14;99023.44;5058726;28;20129;-84
2022/05/31 05:14:36;;;;;;;2.72;1.58;;;;;;;25.30;44.03;99029.75;5058225;28;20028;-84
2022/05/31 05:17:02;;;;;;;2.50;1.50;;;;;;;25.30;43.93;99007.53;5075552;28;20100;-85
2022/05/31 05:19:28;;;;;;;2.33;1.30;;;;;;;25.27;43.99;99013.16;5056691;28;20419;-84
2022/05/31 05:21:53;;;;;;;4.13;1.52;;;;;;;25.27;43.80;99031.84;5076029;28;20103;-85
2022/05/31 05:24:19;;;;;;;3.03;1.40;;;;;;;25.26;43.82;99035.47;5057750;28;20048;-85
2022/05/31 05:26:44;;;;;;;3.30;1.40;;;;;;;25.26;43.79;99040.81;5057283;28;20376;-85
2022/05/31 05:31:57;;;;;;;3.47;1.55;;;;;;;25.23;43.92;99036.59;5075560;28;20047;-84
2022/05/31 05:34:23;;;;;;;2.50;1.40;;;;;;;25.23;44.01;99041.09;5057595;28;20090;-83
2022/05/31 05:36:48;;;;;;;2.22;1.30;;;;;;;25.22;43.62;99034.06;5075327;28;20036;-83
2022/05/31 05:39:14;;;;;;;2.42;1.23;;;;;;;25.21;43.62;99041.22;5057927;28;20046;-83
2022/05/31 05:41:40;;;;;;;2.30;1.30;;;;;;;25.18;43.64;99047.66;5057777;28;20039;-85
2022/05/31 05:44:06;;;;;;;2.28;1.50;;;;;;;25.18;43.59;99050.34;5057458;28;20029;-84
2022/05/31 05:46:32;;;;;;;2.45;1.52;;;;;;;25.17;43.61;99059.34;5057263;28;20035;-84
2022/05/31 05:48:58;;;;;;;2.97;1.45;;;;;;;25.17;43.66;99053.13;5057575;28;20454;-86
2022/05/31 05:51:27;;;;;;;3.60;1.48;;;;;;;25.16;43.73;99052.31;5075005;28;20032;-83
2022/05/31 05:53:53;;;;;;;2.10;1.40;;;;;;;25.15;43.43;99058.63;5074749;28;20035;-84
2022/05/31 05:56:20;;;;;;;2.03;1.25;;;;;;;25.15;43.66;99061.31;5057171;28;20028;-85
2022/05/31 05:58:46;;;;;;;2.10;1.30;;;;;;;25.15;43.63;99068.44;5057280;28;20466;-84
2022/05/31 06:01:23;;;;;;;3.72;1.58;;;;;;;25.14;43.53;99064.91;5075059;28;20442;-84
2022/05/31 06:04:00;;;;;;;2.08;1.27;;;;;;;25.14;43.69;99064.09;5057713;28;20073;-85
2022/05/31 06:06:31;;;;;;;2.63;1.48;;;;;;;25.13;43.36;99068.56;5059511;28;20028;-85
2022/05/31 06:09:02;;;;;;;2.75;1.20;;;;;;;25.14;43.41;99080.94;5058680;28;20115;-85
2022/05/31 06:11:59;;;;;;;2.72;1.40;;;;;;;25.13;43.42;99073.91;5058389;28;20024;-84
2022/05/31 06:14:32;;;;;;;3.95;1.55;;;;;;;25.11;43.33;99078.53;5058307;28;20386;-83
2022/05/31 06:17:06;;;;;;;2.17;1.20;;;;;;;25.12;43.16;99082.91;5059367;28;20016;-86
2022/05/31 06:19:34;;;;;;;2.20;1.40;;;;;;;25.11;43.48;99086.56;5059255;28;20117;-83
2022/05/31 06:22:01;;;;;;;3.17;1.33;;;;;;;25.10;43.44;99087.53;5060003;28;20021;-85
2022/05/31 06:24:30;;;;;;;2.17;1.10;;;;;;;25.11;43.51;99080.34;5059565;28;20047;-85
2022/05/31 06:26:55;;;;;;;2.30;1.30;;;;;;;25.12;43.04;99082.91;5060187;28;20028;-83
2022/05/31 06:29:21;;;;;;;2.53;1.42;;;;;;;25.10;43.27;99079.53;5059400;28;20450;-82
2022/05/31 06:31:46;;;;;;;3.03;1.30;;;;;;;25.08;43.20;99076.13;5082175;28;20020;-84
2022/05/31 06:34:12;;;;;;;3.78;1.40;;;;;;;25.07;43.33;99085.13;5080898;28;20024;-83
2022/05/31 06:36:39;;;;;;;2.83;1.20;;;;;;;25.08;43.08;99084.13;5081000;28;20024;-83
2022/05/31 06:39:07;;;;;;;2.42;1.40;;;;;;;25.07;42.84;99085.13;5062141;28;20021;-83
2022/05/31 06:44:54;;;;;;;2.47;1.15;;;;;;;25.08;43.21;99084.13;5082962;28;20075;-84
2022/05/31 06:47:20;;;;;;;2.03;1.10;;;;;;;25.07;43.01;99080.63;5066344;28;20025;-84
2022/05/31 06:49:45;;;;;;;2.67;1.13;;;;;;;25.08;43.23;99078.78;5065909;28;20438;-86
2022/05/31 06:57:43;;;;;;;2.28;1.00;;;;;;;25.10;42.83;99098.22;5083669;28;20365;-87
2022/05/31 07:00:12;;;;;;;3.97;1.75;;;;;;;25.09;43.09;99099.19;5077586;28;20051;-83
2022/05/31 07:02:38;;;;;;;3.97;1.55;;;;;;;25.11;43.06;99096.38;5059782;28;20695;-83
2022/05/31 07:05:04;;;;;;;2.50;1.30;;;;;;;25.10;43.19;99103.56;5060360;28;20062;-82
2022/05/31 07:07:30;;;;;;;2.88;1.35;;;;;;;25.11;42.95;99102.56;5060250;28;20047;-83
2022/05/31 07:09:56;;;;;;;2.92;1.33;;;;;;;25.10;43.14;99106.22;5060755;28;20024;-83
2022/05/31 07:12:22;;;;;;;3.50;1.50;;;;;;;25.15;43.19;99104.00;5077638;28;20021;-81
2022/05/31 07:14:47;;;;;;;3.42;1.35;;;;;;;25.16;43.45;99095.03;5060252;28;20035;-83
2022/05/31 07:17:13;;;;;;;2.17;1.40;;;;;;;25.18;43.37;99105.59;5059777;28;20466;-81
2022/05/31 07:19:42;;;;;;;2.05;1.27;;;;;;;25.18;43.05;99098.41;5077592;28;20032;-82
2022/05/31 07:22:08;;;;;;;2.90;1.45;;;;;;;25.16;43.12;99111.03;5061005;28;20086;-81
2022/05/31 07:24:33;;;;;;;2.38;1.40;;;;;;;25.17;43.26;99110.06;5061804;28;20021;-82
2022/05/31 07:26:59;;;;;;;2.22;1.27;;;;;;;25.18;43.01;99114.41;5059675;28;20059;-82
2022/05/31 07:29:25;;;;;;;2.67;1.45;;;;;;;25.21;43.25;99113.31;5060179;28;20017;-81
2022/05/31 07:31:51;;;;;;;4.43;1.65;;;;;;;25.22;43.31;99109.66;5060191;28;20020;-81
2022/05/31 07:34:17;;;;;;;3.17;1.50;;;;;;;25.27;43.23;99117.31;5077246;28;20039;-81
2022/05/31 07:36:43;;;;;;;3.13;1.25;;;;;;;25.23;43.18;99110.53;5077406;28;20027;-83
2022/05/31 07:39:14;;;;;;;3.03;1.27;;;;;;;25.27;43.05;99118.13;5059318;28;20035;-82
2022/05/31 07:41:40;;;;;;;3.78;1.65;;;;;;;25.27;43.11;99112.78;5058191;28;20127;-81
2022/05/31 07:44:06;;;;;;;4.15;1.40;;;;;;;25.28;42.86;99117.16;5077169;28;20473;-82
2022/05/31 07:46:32;;;;;;;2.55;1.70;;;;;;;25.28;43.20;99119.81;5059276;28;20036;-81
2022/05/31 07:48:58;;;;;;;3.80;1.67;;;;;;;25.27;42.96;99114.63;5059402;28;20108;-82
2022/05/31 07:51:25;;;;;;;3.17;1.52;;;;;;;25.30;42.78;99122.38;5059678;28;20020;-81
2022/05/31 07:53:52;;;;;;;4.18;1.40;;;;;;;25.35;42.81;99133.50;5062284;28;20119;-83
2022/05/31 07:56:18;;;;;;;3.00;1.25;;;;;;;25.34;42.74;99129.16;5059539;28;20109;-83
2022/05/31 07:58:45;;;;;;;4.68;1.42;;;;;;;25.36;42.74;99132.53;5059306;28;20068;-84
2022/05/31 08:01:14;;;;;;;2.17;1.15;;;;;;;25.38;42.80;99133.25;5060978;28;20024;-82
2022/05/31 08:03:40;;;;;;;2.25;1.38;;;;;;;25.38;42.61;99135.94;5059039;28;20449;-81
2022/05/31 08:06:11;;;;;;;4.35;1.50;;;;;;;25.37;42.76;99134.22;5077255;28;20048;-82
2022/05/31 08:08:38;;;;;;;4.90;1.73;;;;;;;25.36;42.77;99129.84;5059359;28;20034;-81
2022/05/31 08:11:05;;;;;;;3.00;1.40;;;;;;;25.38;42.68;99138.59;5076973;28;20031;-81
2022/05/31 08:13:31;;;;;;;3.47;1.83;;;;;;;25.38;42.53;99135.94;5077685;28;20031;-82
2022/05/31 08:15:58;;;;;;;3.40;1.52;;;;;;;25.38;42.62;99146.63;5060594;28;20521;-82
2022/05/31 08:18:24;;;;;;;4.45;1.35;;;;;;;25.42;42.33;99141.84;5059346;28;20028;-81
2022/05/31 08:20:50;;;;;;;4.10;1.50;;;;;;;25.41;42.80;99141.00;5077183;28;20021;-82
2022/05/31 08:23:15;;;;;;;2.85;1.45;;;;;;;25.40;42.58;99136.63;5076625;28;20029;-81
2022/05/31 08:25:41;;;;;;;3.75;1.52;;;;;;;25.40;42.51;99143.78;5058505;28;20029;-80
2022/05/31 08:28:07;;;;;;;2.50;1.30;;;;;;;25.41;42.54;99145.47;5058726;28;20039;-81
2022/05/31 08:30:32;;;;;;;3.80;1.90;;;;;;;25.42;42.59;99148.03;5076622;28;20024;-83
2022/05/31 08:32:58;;;;;;;3.78;1.45;;;;;;;25.42;42.52;99148.03;5076131;28;20392;-83
2022/05/31 08:35:24;;;;;;;2.70;1.40;;;;;;;25.43;42.59;99147.03;5058305;28;20383;-85
2022/05/31 08:37:49;;;;;;;4.53;1.60;;;;;;;25.46;42.45;99151.28;5058250;28;20107;-81
2022/05/31 08:40:15;;;;;;;2.63;1.30;;;;;;;25.46;42.31;99149.47;5059939;28;20464;-83
2022/05/31 08:42:51;;;;;;;2.88;1.40;;;;;;;25.46;42.69;99148.59;5058079;28;20024;-81
2022/05/31 08:45:23;;;;;;;4.47;1.70;;;;;;;25.47;42.45;99151.16;5058002;28;20031;-81
2022/05/31 08:48:02;;;;;;;2.53;1.42;;;;;;;25.50;42.55;99149.19;5058229;28;20044;-81
2022/05/31 08:53:27;;;;;;;2.97;1.48;;;;;;;25.50;42.46;99150.06;5077774;28;20090;-83
2022/05/31 08:58:55;;;;;;;3.35;1.38;;;;;;;25.52;42.45;99147.25;5077752;28;20313;-83
2022/05/31 09:01:26;;;;;;;3.13;1.60;;;;;;;25.52;42.26;99148.09;5077921;28;20039;-85
2022/05/31 09:03:56;;;;;;;3.03;1.40;;;;;;;25.53;42.48;99143.59;5060886;28;20029;-83
2022/05/31 09:06:27;;;;;;;2.60;1.38;;;;;;;25.55;42.24;99141.66;5079268;28;20028;-84
2022/05/31 09:09:15;;;;;;;2.67;1.40;;;;;;;25.57;42.20;99150.41;5061664;28;20024;-84
2022/05/31 09:12:01;;;;;;;2.25;1.23;;;;;;;25.57;42.36;99150.41;5081148;28;20024;-84
2022/05/31 09:14:42;;;;;;;4.00;1.40;;;;;;;25.58;42.21;99150.25;5082044;28;20032;-85
2022/05/31 09:17:27;;;;;;;3.00;1.40;;;;;;;25.61;42.24;99151.81;5083398;28;20028;-85
2022/05/31 09:20:08;;;;;;;4.20;1.42;;;;;;;25.61;42.30;99151.81;5062590;28;20090;-82
2022/05/31 09:22:35;;;;;;;3.75;1.30;;;;;;;25.63;42.13;99149.88;5057626;28;20493;-81
2022/05/31 09:25:02;;;;;;;3.13;1.30;;;;;;;25.65;42.03;99155.94;5075401;28;20100;-81
2022/05/31 09:27:40;;;;;;;1.75;1.13;;;;;;;25.65;41.87;99158.59;5057864;28;20063;-81
2022/05/31 09:30:15;;;;;;;2.83;1.40;;;;;;;25.67;42.10;99151.28;5057818;28;20486;-81
2022/05/31 09:32:52;;;;;;;3.63;1.60;;;;;;;25.69;42.21;99149.34;5075228;28;20140;-82
2022/05/31 09:35:36;;;;;;;2.88;1.30;;;;;;;25.72;42.13;99146.41;5075490;28;20446;-83
2022/05/31 09:38:18;;;;;;;3.10;1.38;;;;;;;25.73;42.01;99145.41;5057494;28;20097;-80
2022/05/31 09:40:53;;;;;;;3.00;1.33;;;;;;;25.72;42.15;99138.38;5057707;28;20056;-81
2022/05/31 09:43:30;;;;;;;3.08;1.33;;;;;;;25.76;42.36;99151.50;5057425;28;20043;-81
2022/05/31 09:46:08;;;;;;;2.95;1.45;;;;;;;25.77;42.05;99147.84;5057440;28;20397;-82
2022/05/31 09:48:43;;;;;;;3.22;1.45;;;;;;;25.79;42.07;99148.53;5075802;28;20346;-81
2022/05/31 09:51:31;;;;;;;2.72;1.23;;;;;;;25.82;42.30;99153.63;5075376;28;20029;-82
2022/05/31 09:59:29;;;;;;;3.03;1.75;;;;;;;25.87;41.83;99162.09;5075229;28;19951;-81
2022/05/31 10:01:55;;;;;;;3.40;1.42;;;;;;;25.89;42.06;99154.78;5056873;28;20143;-81
2022/05/31 10:04:22;;;;;;;3.55;1.40;;;;;;;25.91;41.88;99158.16;5057615;28;20056;-83
2022/05/31 10:07:01;;;;;;;3.03;1.48;;;;;;;25.91;41.95;99160.84;5078605;28;20081;-82
2022/05/31 10:09:39;;;;;;;2.92;1.52;;;;;;;25.95;42.08;99169.47;5079065;28;20089;-83
2022/05/31 10:12:13;;;;;;;2.92;1.33;;;;;;;25.94;42.06;99157.06;5061046;28;20033;-82
2022/05/31 10:14:45;;;;;;;2.10;1.00;;;;;;;25.97;41.81;99151.47;5060628;28;20036;-83
2022/05/31 10:17:35;;;;;;;2.63;1.33;;;;;;;26.00;41.90;99156.53;5078561;28;20032;-83
2022/05/31 10:20:15;;;;;;;4.28;1.25;;;;;;;26.01;41.86;99148.38;5078915;28;20077;-82
2022/05/31 10:22:58;;;;;;;2.97;1.33;;;;;;;26.04;41.96;99146.44;5079427;28;20030;-82
2022/05/31 10:25:40;;;;;;;3.03;1.35;;;;;;;26.05;41.84;99150.78;5061440;28;20092;-82
2022/05/31 10:28:15;;;;;;;2.90;1.20;;;;;;;26.07;41.96;99168.38;5061261;28;20024;-85
2022/05/31 10:30:40;;;;;;;3.97;1.52;;;;;;;26.08;41.49;99158.53;5061793;28;20090;-83
2022/05/31 10:33:08;;;;;;;2.50;1.30;;;;;;;26.10;41.79;99151.25;5081360;28;20099;-84
2022/05/31 10:35:41;;;;;;;3.78;1.70;;;;;;;26.10;41.53;99161.94;5063419;28;20024;-84
2022/05/31 10:38:16;;;;;;;3.55;1.38;;;;;;;26.12;41.74;99154.63;5062917;28;20025;-82
2022/05/31 10:40:50;;;;;;;2.75;1.35;;;;;;;26.14;41.86;99168.69;5081323;28;20051;-83
2022/05/31 10:43:15;;;;;;;3.05;1.40;;;;;;;26.15;41.77;99170.41;5064120;28;20028;-83
2022/05/31 10:45:43;;;;;;;3.00;1.30;;;;;;;26.17;41.74;99175.59;5065665;28;20028;-84
2022/05/31 10:48:08;;;;;;;3.20;1.50;;;;;;;26.18;41.90;99180.81;5062973;28;20410;-82
2022/05/31 10:50:50;;;;;;;3.78;1.67;;;;;;;26.18;41.65;99180.81;5060662;28;20059;-83
2022/05/31 10:54:00;;;;;;;3.15;1.40;;;;;;;26.21;41.71;99177.03;5060500;28;20413;-81
2022/05/31 10:56:25;;;;;;;2.70;1.50;;;;;;;26.22;41.80;99182.25;5078231;28;20028;-81
2022/05/31 10:59:05;;;;;;;3.03;1.75;;;;;;;26.24;41.76;99174.13;5060142;28;20028;-82
2022/05/31 11:02:03;;;;;;;4.20;1.58;;;;;;;26.24;41.66;99169.59;5059692;28;20102;-82
2022/05/31 11:04:44;;;;;;;3.38;1.77;;;;;;;26.26;41.78;99167.63;5066688;28;20129;-81
2022/05/31 11:07:18;;;;;;;3.28;1.65;;;;;;;26.27;41.57;99169.34;5060245;28;20032;-83
2022/05/31 11:12:56;;;;;;;3.78;1.85;;;;;;;26.32;41.77;99176.09;5080274;28;20047;-84
2022/05/31 11:15:37;;;;;;;3.60;1.63;;;;;;;26.32;41.59;99168.94;5060037;28;20021;-82
2022/05/31 11:18:24;;;;;;;3.53;1.73;;;;;;;26.35;41.67;99165.16;5060284;28;20025;-83
2022/05/31 11:21:21;;;;;;;3.55;1.77;;;;;;;26.38;41.40;99170.19;5079223;28;20024;-83
2022/05/31 11:23:54;;;;;;;;;;;;;;;26.40;41.61;99173.59;5061957;28;20028;-84
2022/05/31 11:26:49;;;;;;;2.55;1.55;;;;;;;26.42;41.58;99173.47;5061678;28;20238;-83
2022/05/31 11:29:41;;;;;;;3.70;1.63;;;;;;;26.42;41.82;99160.94;5063359;28;20406;-84
2022/05/31 11:32:30;;;;;;;3.53;1.70;;;;;;;26.45;41.30;99158.00;5063730;28;20078;-82
2022/05/31 11:35:32;;;;;;;3.63;2.00;;;;;;;26.46;41.70;99159.69;5065448;28;20036;-84
2022/05/31 11:38:13;;;;;;;3.45;1.85;;;;;;;26.50;41.65;99162.94;5080557;28;20219;-84
2022/05/31 11:41:03;;;;;;;3.47;1.83;;;;;;;26.50;41.50;99153.09;5064759;28;20040;-82
2022/05/31 11:43:59;;;;;;;2.95;1.80;;;;;;;26.53;41.68;99151.94;5059964;28;20028;-80
2022/05/31 11:46:30;;;;;;;3.42;1.48;;;;;;;26.54;41.50;99148.31;5076807;28;20060;-81
2022/05/31 11:49:07;;;;;;;2.83;1.58;;;;;;;26.56;41.45;99157.03;5059711;28;20484;-81
2022/05/31 11:51:51;;;;;;;4.35;1.77;;;;;;;26.58;41.44;99154.22;5060422;28;20028;-80
2022/05/31 11:54:38;;;;;;;3.25;1.70;;;;;;;26.60;41.49;99152.25;5077014;28;20458;-81
2022/05/31 11:57:19;;;;;;;3.53;1.83;;;;;;;26.60;41.46;99146.88;5059106;28;20478;-81
2022/05/31 11:59:57;;;;;;;2.97;1.50;;;;;;;26.60;41.73;99138.84;5076815;28;20024;-82
2022/05/31 12:02:37;;;;;;;2.35;1.10;;;;;;;26.62;41.65;99137.75;5077110;28;20052;-82
2022/05/31 12:05:24;;;;;;;3.20;1.60;;;;;;;26.64;41.64;99142.97;5059025;28;20370;-80
2022/05/31 12:07:56;;;;;;;2.65;1.45;;;;;;;26.66;41.64;99140.97;5058543;28;20465;-82
2022/05/31 12:10:27;;;;;;;3.55;1.67;;;;;;;26.69;41.39;99135.38;5058660;28;20024;-83
2022/05/31 12:12:57;;;;;;;3.65;1.55;;;;;;;26.68;41.45;99131.81;5058725;28;20020;-80
2022/05/31 12:15:28;;;;;;;3.40;1.50;;;;;;;26.70;41.59;99130.84;5076129;28;20477;-82
2022/05/31 12:18:18;;;;;;;3.45;1.52;;;;;;;26.72;41.33;99135.06;5065041;28;20025;-82
2022/05/31 12:21:07;;;;;;;3.25;1.67;;;;;;;26.73;41.68;99136.75;5062111;28;20111;-82